createdAt,value
2018-06-09T00:00:31.729Z,30.53
2018-06-09T00:03:00.613Z,30.67
2018-06-09T00:05:29.101Z,29.53
2018-06-09T00:07:57.596Z,32.83
2018-06-09T00:10:26.080Z,28.23
2018-06-09T00:12:54.572Z,27.60
2018-06-09T00:15:23.046Z,33.30
2018-06-09T00:17:51.532Z,34.47
2018-06-09T00:20:19.985Z,31.67
2018-06-09T00:22:48.549Z,30.47
2018-06-09T00:25:16.983Z,29.23
2018-06-09T00:27:45.510Z,29.13
2018-06-09T00:30:14.048Z,30.17
2018-06-09T00:32:42.482Z,30.77
2018-06-09T00:35:10.980Z,29.23
2018-06-09T00:37:39.415Z,29.97
2018-06-09T00:40:07.877Z,29.83
2018-06-09T00:42:36.315Z,31.03
2018-06-09T00:45:04.904Z,29.60
2018-06-09T00:47:33.330Z,29.60
2018-06-09T00:50:01.796Z,32.43
2018-06-09T00:52:30.233Z,30.97
2018-06-09T00:54:58.670Z,30.40
2018-06-09T00:57:27.123Z,31.57
2018-06-09T00:59:55.559Z,27.70
2018-06-09T01:02:24.065Z,32.13
2018-06-09T01:04:52.901Z,30.30
2018-06-09T01:07:21.357Z,33.93
2018-06-09T01:09:49.914Z,30.77
2018-06-09T01:12:18.335Z,28.97
2018-06-09T01:14:46.950Z,30.67
2018-06-09T01:17:15.371Z,31.63
2018-06-09T01:19:43.941Z,30.97
2018-06-09T01:22:12.511Z,30.53
2018-06-09T01:24:40.950Z,31.07
2018-06-09T01:27:09.358Z,32.50
2018-06-09T01:29:37.808Z,32.23
2018-06-09T01:32:06.425Z,27.47
2018-06-09T01:34:34.915Z,29.70
2018-06-09T01:37:03.383Z,30.47
2018-06-09T01:39:31.893Z,30.37
2018-06-09T01:42:00.782Z,32.10
2018-06-09T01:44:28.963Z,31.80
2018-06-09T01:46:57.485Z,31.90
2018-06-09T01:49:25.997Z,30.43
2018-06-09T01:51:54.543Z,32.77
2018-06-09T01:54:23.097Z,30.37
2018-06-09T01:56:51.611Z,29.90
2018-06-09T01:59:20.185Z,30.03
2018-06-09T02:01:48.713Z,30.37
2018-06-09T02:04:17.537Z,30.93
2018-06-09T02:06:46.090Z,32.63
2018-06-09T02:09:14.985Z,31.37
2018-06-09T02:11:43.771Z,32.17
2018-06-09T02:14:12.302Z,34.37
2018-06-09T02:16:40.866Z,29.50
2018-06-09T02:19:09.489Z,31.63
2018-06-09T02:21:39.219Z,30.93
2018-06-09T02:24:07.748Z,31.37
2018-06-09T02:26:36.331Z,30.57
2018-06-09T02:29:05.046Z,32.43
2018-06-09T02:31:34.238Z,33.13
2018-06-09T02:34:04.196Z,30.53
2018-06-09T02:36:33.465Z,33.27
2018-06-09T02:39:02.574Z,29.87
2018-06-09T02:41:31.458Z,34.50
2018-06-09T02:44:01.732Z,32.63
2018-06-09T02:46:30.436Z,32.83
2018-06-09T02:48:59.993Z,33.80
2018-06-09T02:51:29.151Z,30.13
2018-06-09T02:53:57.692Z,35.93
2018-06-09T02:56:25.892Z,37.03
2018-06-09T02:58:55.312Z,34.17
2018-06-09T03:01:23.818Z,34.00
2018-06-09T03:03:52.439Z,33.57
2018-06-09T03:06:20.986Z,31.90
2018-06-09T03:08:49.549Z,33.93
2018-06-09T03:11:18.046Z,34.70
2018-06-09T03:13:46.733Z,34.67
2018-06-09T03:16:15.248Z,36.23
2018-06-09T03:18:43.768Z,30.83
2018-06-09T03:21:12.532Z,33.47
2018-06-09T03:23:41.107Z,34.70
2018-06-09T03:26:09.699Z,32.23
2018-06-09T03:28:38.235Z,33.90
2018-06-09T03:31:06.722Z,35.90
2018-06-09T03:33:35.299Z,36.23
2018-06-09T03:36:03.808Z,31.93
2018-06-09T03:38:32.385Z,29.10
2018-06-09T03:41:00.973Z,31.30
2018-06-09T03:43:29.522Z,33.50
2018-06-09T03:45:58.065Z,31.20
2018-06-09T03:48:26.626Z,33.10
2018-06-09T03:50:55.192Z,34.47
2018-06-09T03:53:23.711Z,31.23
2018-06-09T03:55:52.230Z,32.17
2018-06-09T03:58:21.051Z,32.27
2018-06-09T04:00:50.195Z,34.00
2018-06-09T04:03:18.704Z,32.07
2018-06-09T04:05:47.203Z,32.13
2018-06-09T04:08:15.749Z,32.17
2018-06-09T04:10:44.229Z,31.87
2018-06-09T04:13:12.707Z,31.60
2018-06-09T04:15:41.281Z,30.93
2018-06-09T04:18:09.793Z,32.57
2018-06-09T04:20:38.337Z,34.53
2018-06-09T04:23:06.776Z,32.07
2018-06-09T04:25:35.526Z,33.97
2018-06-09T04:28:04.126Z,29.50
2018-06-09T04:30:32.736Z,29.50
2018-06-09T04:33:01.577Z,31.53
2018-06-09T04:35:30.169Z,31.23
2018-06-09T04:37:58.743Z,31.60
2018-06-09T04:40:27.245Z,29.13
2018-06-09T04:42:55.761Z,29.20
2018-06-09T04:45:24.277Z,33.37
2018-06-09T04:47:53.120Z,35.50
2018-06-09T04:50:21.708Z,30.07
2018-06-09T04:52:50.319Z,31.50
2018-06-09T04:55:18.834Z,31.17
2018-06-09T04:57:47.404Z,33.00
2018-06-09T05:00:16.011Z,27.30
2018-06-09T05:02:44.525Z,31.40
2018-06-09T05:05:13.009Z,31.00
2018-06-09T05:07:41.511Z,32.03
2018-06-09T05:10:10.013Z,28.97
2018-06-09T05:12:38.204Z,30.47
2018-06-09T05:15:06.416Z,28.60
2018-06-09T05:17:34.970Z,30.20
2018-06-09T05:20:03.932Z,36.63
2018-06-09T05:22:32.487Z,28.13
2018-06-09T05:25:01.017Z,28.17
2018-06-09T05:27:29.653Z,29.67
2018-06-09T05:29:59.267Z,27.30
2018-06-09T05:32:27.806Z,27.83
2018-06-09T05:34:56.304Z,28.80
2018-06-09T05:37:24.844Z,27.23
2018-06-09T05:39:53.370Z,29.50
2018-06-09T05:42:21.998Z,29.23
2018-06-09T05:44:50.841Z,27.60
2018-06-09T05:47:19.417Z,33.07
2018-06-09T05:49:47.893Z,28.07
2018-06-09T05:52:16.417Z,25.53
2018-06-09T05:54:44.896Z,27.10
2018-06-09T05:57:13.117Z,27.67
2018-06-09T05:59:41.670Z,24.20
2018-06-09T06:02:11.322Z,26.63
2018-06-09T06:04:39.835Z,26.00
2018-06-09T06:07:08.449Z,29.20
2018-06-09T06:09:37.011Z,29.37
2018-06-09T06:12:05.696Z,30.00
2018-06-09T06:14:34.248Z,28.23
2018-06-09T06:17:02.858Z,27.80
2018-06-09T06:19:31.390Z,24.77
2018-06-09T06:21:59.930Z,27.00
2018-06-09T06:24:28.543Z,24.10
2018-06-09T06:26:57.089Z,22.80
2018-06-09T06:29:25.673Z,23.53
2018-06-09T06:31:54.708Z,26.67
2018-06-09T06:34:23.281Z,24.77
2018-06-09T06:36:51.804Z,27.97
2018-06-09T06:39:21.038Z,27.43
2018-06-09T06:41:49.536Z,27.57
2018-06-09T06:44:18.761Z,21.17
2018-06-09T06:46:47.297Z,24.13
2018-06-09T06:49:15.850Z,21.80
2018-06-09T06:51:44.421Z,20.93
2018-06-09T06:54:12.951Z,23.17
2018-06-09T06:56:41.501Z,23.33
2018-06-09T06:59:09.992Z,23.83
2018-06-09T07:01:38.632Z,21.57
2018-06-09T07:04:07.123Z,21.73
2018-06-09T07:06:35.618Z,23.43
2018-06-09T07:09:05.977Z,19.27
2018-06-09T07:11:34.550Z,19.20
2018-06-09T07:14:03.121Z,22.03
2018-06-09T07:16:31.640Z,20.00
2018-06-09T07:19:00.249Z,19.50
2018-06-09T07:21:28.432Z,20.33
2018-06-09T07:23:57.212Z,17.77
2018-06-09T07:26:25.749Z,19.20
2018-06-09T07:28:54.328Z,17.30
2018-06-09T07:31:22.895Z,18.47
2018-06-09T07:33:51.079Z,21.53
2018-06-09T07:36:19.616Z,22.47
2018-06-09T07:38:48.201Z,15.97
2018-06-09T07:41:16.760Z,16.33
2018-06-09T07:43:45.328Z,17.37
2018-06-09T07:46:13.866Z,19.63
2018-06-09T07:48:42.451Z,19.83
2018-06-09T07:51:11.038Z,14.57
2018-06-09T07:53:39.555Z,17.00
2018-06-09T07:56:08.477Z,14.90
2018-06-09T07:58:37.046Z,17.67
2018-06-09T08:01:05.637Z,13.70
2018-06-09T08:03:34.148Z,17.03
2018-06-09T08:06:02.732Z,13.60
2018-06-09T08:08:31.183Z,13.40
2018-06-09T08:11:00.148Z,13.57
2018-06-09T08:13:28.655Z,15.23
2018-06-09T08:15:57.222Z,14.30
2018-06-09T08:18:26.278Z,15.17
2018-06-09T08:20:54.907Z,16.23
2018-06-09T08:23:23.502Z,13.97
2018-06-09T08:25:52.097Z,14.67
2018-06-09T08:28:20.728Z,20.77
2018-06-09T08:30:49.368Z,15.13
2018-06-09T08:33:17.988Z,15.40
2018-06-09T08:35:46.711Z,17.50
2018-06-09T08:38:15.221Z,18.30
2018-06-09T08:40:44.085Z,13.37
2018-06-09T08:43:12.647Z,16.13
2018-06-09T08:45:41.757Z,16.60
2018-06-09T08:48:10.311Z,17.87
2018-06-09T08:50:38.898Z,15.07
2018-06-09T08:53:07.500Z,15.33
2018-06-09T08:55:36.085Z,20.10
2018-06-09T08:58:04.665Z,16.40
2018-06-09T09:00:33.165Z,16.00
2018-06-09T09:03:01.787Z,20.60
2018-06-09T09:05:30.349Z,16.90
2018-06-09T09:07:58.921Z,15.20
2018-06-09T09:10:27.538Z,17.00
2018-06-09T09:12:56.074Z,15.55
2018-06-09T09:15:24.584Z,14.70
2018-06-09T09:17:53.123Z,14.30
2018-06-09T09:20:21.665Z,15.33
2018-06-09T09:22:50.519Z,13.33
2018-06-09T09:25:19.505Z,15.73
2018-06-09T09:27:48.113Z,16.00
2018-06-09T09:30:16.974Z,11.77
2018-06-09T09:32:45.549Z,12.77
2018-06-09T09:35:14.039Z,14.03
2018-06-09T09:37:42.621Z,13.97
2018-06-09T09:40:11.557Z,16.07
2018-06-09T09:42:40.419Z,15.33
2018-06-09T09:45:09.017Z,13.83
2018-06-09T09:47:37.585Z,13.33
2018-06-09T09:50:06.327Z,14.33
2018-06-09T09:52:34.867Z,13.13
2018-06-09T09:55:03.461Z,14.67
2018-06-09T09:57:42.721Z,13.57
2018-06-09T10:00:11.362Z,14.17
2018-06-09T10:02:39.929Z,12.77
2018-06-09T10:05:08.551Z,18.30
2018-06-09T10:07:37.110Z,13.10
2018-06-09T10:10:05.706Z,15.17
2018-06-09T10:12:34.292Z,13.63
2018-06-09T10:15:02.941Z,13.10
2018-06-09T10:17:31.964Z,15.97
2018-06-09T10:20:00.540Z,13.60
2018-06-09T10:22:29.133Z,13.53
2018-06-09T10:24:57.815Z,14.00
2018-06-09T10:27:26.369Z,11.67
2018-06-09T10:29:54.937Z,10.50
2018-06-09T10:32:23.579Z,12.27
2018-06-09T10:34:52.070Z,14.10
2018-06-09T10:37:20.660Z,14.30
2018-06-09T10:39:49.503Z,12.77
2018-06-09T10:42:18.271Z,14.73
2018-06-09T10:44:46.829Z,10.03
2018-06-09T10:47:21.118Z,14.07
2018-06-09T10:49:49.609Z,11.90
2018-06-09T10:52:18.149Z,17.73
2018-06-09T10:54:47.639Z,13.27
2018-06-09T10:57:16.270Z,12.93
2018-06-09T10:59:44.837Z,11.53
2018-06-09T11:02:13.554Z,12.57
2018-06-09T11:04:42.144Z,14.07
2018-06-09T11:07:10.644Z,15.00
2018-06-09T11:09:39.199Z,12.30
2018-06-09T11:12:07.798Z,12.43
2018-06-09T11:14:36.300Z,14.40
2018-06-09T11:17:04.891Z,13.97
2018-06-09T11:19:33.470Z,13.77
2018-06-09T11:22:02.064Z,12.90
2018-06-09T11:24:30.605Z,10.80
2018-06-09T11:26:59.116Z,11.13
2018-06-09T11:29:27.676Z,13.27
2018-06-09T11:31:56.398Z,12.67
2018-06-09T11:34:24.905Z,13.50
2018-06-09T11:36:53.633Z,13.83
2018-06-09T11:39:22.309Z,12.17
2018-06-09T11:41:50.899Z,12.93
2018-06-09T11:44:19.800Z,11.83
2018-06-09T11:46:48.013Z,14.10
2018-06-09T11:49:17.235Z,11.83
2018-06-09T11:51:46.836Z,16.63
2018-06-09T11:54:15.746Z,13.17
2018-06-09T11:56:44.336Z,10.70
2018-06-09T11:59:12.825Z,15.07
2018-06-09T12:01:41.349Z,11.67
2018-06-09T12:04:09.917Z,12.60
2018-06-09T12:06:38.554Z,13.40
2018-06-09T12:09:07.836Z,13.47
2018-06-09T12:11:36.764Z,13.33
2018-06-09T12:14:05.408Z,13.83
2018-06-09T12:16:34.080Z,11.70
2018-06-09T12:19:02.649Z,10.90
2018-06-09T12:21:31.197Z,10.13
2018-06-09T12:23:59.724Z,12.10
2018-06-09T12:26:28.237Z,10.90
2018-06-09T12:28:56.457Z,11.23
2018-06-09T12:31:25.023Z,13.47
2018-06-09T12:33:53.612Z,11.00
2018-06-09T12:36:22.246Z,10.33
2018-06-09T12:38:50.878Z,10.97
2018-06-09T12:41:19.483Z,12.20
2018-06-09T12:43:48.071Z,11.90
2018-06-09T12:46:16.681Z,10.80
2018-06-09T12:48:45.365Z,10.70
2018-06-09T12:51:13.840Z,10.00
2018-06-09T12:53:42.326Z,8.03
2018-06-09T12:56:10.866Z,13.37
2018-06-09T12:58:39.995Z,14.03
2018-06-09T13:01:14.234Z,11.27
2018-06-09T13:03:42.780Z,11.37
2018-06-09T13:06:11.399Z,11.40
2018-06-09T13:08:40.236Z,12.87
2018-06-09T13:11:08.757Z,12.87
2018-06-09T13:13:37.257Z,9.23
2018-06-09T13:16:05.803Z,11.47
2018-06-09T13:18:34.343Z,9.73
2018-06-09T13:21:02.911Z,12.77
2018-06-09T13:23:31.479Z,12.97
2018-06-09T13:26:00.650Z,11.90
2018-06-09T13:28:29.210Z,9.97
2018-06-09T13:30:57.746Z,12.63
2018-06-09T13:33:26.245Z,9.67
2018-06-09T13:35:54.812Z,13.20
2018-06-09T13:38:23.369Z,10.17
2018-06-09T13:40:51.925Z,13.30
2018-06-09T13:43:20.570Z,12.00
2018-06-09T13:45:49.108Z,11.43
2018-06-09T13:48:17.763Z,13.27
2018-06-09T13:50:46.665Z,14.13
2018-06-09T13:53:15.172Z,11.60
2018-06-09T13:55:43.763Z,16.83
2018-06-09T13:58:12.070Z,14.10
2018-06-09T14:00:40.754Z,11.30
2018-06-09T14:03:09.746Z,15.77
2018-06-09T14:05:42.353Z,12.97
2018-06-09T14:08:10.913Z,12.03
2018-06-09T14:10:39.444Z,14.80
2018-06-09T14:13:08.016Z,16.43
2018-06-09T14:15:36.600Z,13.00
2018-06-09T14:18:05.162Z,13.87
2018-06-09T14:20:33.715Z,11.57
2018-06-09T14:23:02.216Z,13.93
2018-06-09T14:25:30.758Z,14.43
2018-06-09T14:28:18.778Z,13.33
2018-06-09T14:30:47.372Z,12.30
2018-06-09T14:33:15.903Z,11.43
2018-06-09T14:35:44.429Z,13.63
2018-06-09T14:38:13.016Z,15.07
2018-06-09T14:40:41.844Z,16.30
2018-06-09T14:43:11.379Z,15.23
2018-06-09T14:45:40.503Z,16.47
2018-06-09T14:48:08.994Z,13.87
2018-06-09T14:50:50.272Z,15.23
2018-06-09T14:53:18.861Z,14.83
2018-06-09T14:55:47.401Z,14.17
2018-06-09T14:58:15.919Z,13.93
2018-06-09T15:00:44.739Z,16.17
2018-06-09T15:03:13.326Z,14.90
2018-06-09T15:05:41.864Z,12.53
2018-06-09T15:08:10.451Z,12.70
2018-06-09T15:10:39.716Z,14.77
2018-06-09T15:13:10.330Z,15.33
2018-06-09T15:15:39.218Z,17.60
2018-06-09T15:18:07.739Z,12.67
2018-06-09T15:20:36.227Z,12.43
2018-06-09T15:23:04.983Z,13.83
2018-06-09T15:25:33.491Z,11.63
2018-06-09T15:28:02.267Z,12.87
2018-06-09T15:30:30.792Z,12.77
2018-06-09T15:32:59.588Z,14.33
2018-06-09T15:35:28.070Z,13.13
2018-06-09T15:37:56.607Z,14.17
2018-06-09T15:40:25.233Z,13.83
2018-06-09T15:42:53.783Z,13.67
2018-06-09T15:45:22.331Z,15.97
2018-06-09T15:47:50.991Z,12.73
2018-06-09T15:50:19.797Z,13.83
2018-06-09T15:52:48.389Z,12.70
2018-06-09T15:55:16.876Z,12.23
2018-06-09T15:57:45.758Z,12.60
2018-06-09T16:00:14.348Z,13.37
2018-06-09T16:02:43.198Z,15.70
2018-06-09T16:05:11.679Z,16.53
2018-06-09T16:07:40.426Z,17.67
2018-06-09T16:10:08.845Z,14.27
2018-06-09T16:12:37.385Z,15.30
2018-06-09T16:15:05.905Z,16.13
2018-06-09T16:17:34.454Z,14.67
2018-06-09T16:20:03.035Z,14.70
2018-06-09T16:22:31.985Z,16.30
2018-06-09T16:25:00.672Z,14.10
2018-06-09T16:27:29.283Z,14.43
2018-06-09T16:29:57.889Z,16.23
2018-06-09T16:32:26.463Z,16.60
2018-06-09T16:34:56.158Z,16.40
2018-06-09T16:37:24.752Z,15.67
2018-06-09T16:39:53.367Z,15.73
2018-06-09T16:42:22.124Z,15.40
2018-06-09T16:44:50.696Z,15.43
2018-06-09T16:47:19.258Z,17.43
2018-06-09T16:49:47.892Z,15.77
2018-06-09T16:52:16.531Z,16.17
2018-06-09T16:54:45.179Z,19.17
2018-06-09T16:57:14.030Z,17.50
2018-06-09T16:59:42.505Z,17.03
2018-06-09T17:02:11.026Z,18.57
2018-06-09T17:04:39.576Z,17.00
2018-06-09T17:07:07.822Z,17.17
2018-06-09T17:09:36.351Z,16.47
2018-06-09T17:12:04.818Z,16.07
2018-06-09T17:14:33.357Z,16.17
2018-06-09T17:17:01.943Z,16.23
2018-06-09T17:19:30.499Z,19.77
2018-06-09T17:21:59.388Z,15.47
2018-06-09T17:24:28.036Z,17.65
2018-06-09T17:26:56.635Z,17.47
2018-06-09T17:29:25.766Z,18.20
2018-06-09T17:31:54.275Z,18.87
2018-06-09T17:34:22.945Z,17.50
2018-06-09T17:36:51.575Z,16.13
2018-06-09T17:39:20.132Z,19.53
2018-06-09T17:41:48.740Z,21.00
2018-06-09T17:44:17.306Z,17.87
2018-06-09T17:46:45.513Z,18.20
2018-06-09T17:49:14.921Z,17.47
2018-06-09T17:51:43.472Z,16.73
2018-06-09T17:54:12.018Z,17.57
2018-06-09T17:56:40.591Z,18.33
2018-06-09T17:59:09.101Z,17.03
2018-06-09T18:01:37.709Z,17.33
2018-06-09T18:04:06.272Z,21.97
2018-06-09T18:06:34.826Z,16.93
2018-06-09T18:09:03.822Z,17.80
2018-06-09T18:11:32.327Z,19.63
2018-06-09T18:14:00.888Z,17.27
2018-06-09T18:16:29.503Z,19.23
2018-06-09T18:18:58.102Z,15.53
2018-06-09T18:21:26.648Z,20.63
2018-06-09T18:23:55.301Z,16.23
2018-06-09T18:26:23.928Z,14.90
2018-06-09T18:28:52.402Z,15.00
2018-06-09T18:31:20.951Z,14.60
2018-06-09T18:33:49.569Z,15.33
2018-06-09T18:36:18.110Z,16.20
2018-06-09T18:38:46.650Z,13.83
2018-06-09T18:41:15.321Z,17.20
2018-06-09T18:43:43.924Z,15.77
2018-06-09T18:46:12.458Z,18.57
2018-06-09T18:48:40.978Z,15.13
2018-06-09T18:51:09.522Z,14.23
2018-06-09T18:53:38.061Z,14.63
2018-06-09T18:56:06.578Z,17.80
2018-06-09T18:58:35.207Z,14.60
2018-06-09T19:01:03.717Z,16.57
2018-06-09T19:03:32.238Z,13.10
2018-06-09T19:06:00.791Z,13.80
2018-06-09T19:08:29.298Z,14.00
2018-06-09T19:10:58.048Z,14.97
2018-06-09T19:13:26.590Z,12.43
2018-06-09T19:15:55.162Z,18.13
2018-06-09T19:18:23.750Z,16.77
2018-06-09T19:20:52.298Z,19.13
2018-06-09T19:23:20.883Z,18.37
2018-06-09T19:25:49.463Z,17.07
2018-06-09T19:28:17.994Z,14.40
2018-06-09T19:30:46.771Z,19.67
2018-06-09T19:33:15.326Z,20.70
2018-06-09T19:35:43.874Z,17.30
2018-06-09T19:38:12.533Z,15.37
2018-06-09T19:40:41.125Z,20.20
2018-06-09T19:43:09.583Z,21.13
2018-06-09T19:45:38.074Z,18.33
2018-06-09T19:48:06.581Z,15.00
2018-06-09T19:50:35.174Z,19.63
2018-06-09T19:53:03.716Z,15.83
2018-06-09T19:55:32.270Z,20.23
2018-06-09T19:58:00.793Z,20.27
2018-06-09T20:00:29.362Z,21.37
2018-06-09T20:02:59.109Z,16.00
2018-06-09T20:05:27.683Z,18.67
2018-06-09T20:07:56.793Z,17.90
2018-06-09T20:10:25.461Z,18.07
2018-06-09T20:12:54.061Z,22.40
2018-06-09T20:15:23.365Z,19.17
2018-06-09T20:17:52.271Z,20.73
2018-06-09T20:20:20.906Z,21.53
2018-06-09T20:22:49.546Z,22.47
2018-06-09T20:25:18.091Z,21.87
2018-06-09T20:27:46.703Z,18.73
2018-06-09T20:30:15.327Z,23.80
2018-06-09T20:32:43.867Z,26.10
2018-06-09T20:35:12.482Z,25.23
2018-06-09T20:37:41.208Z,22.00
2018-06-09T20:40:09.796Z,21.47
2018-06-09T20:42:39.072Z,20.50
2018-06-09T20:45:08.117Z,23.70
2018-06-09T20:47:37.018Z,21.53
2018-06-09T20:50:05.568Z,19.30
2018-06-09T20:52:33.800Z,19.93
2018-06-09T20:55:02.276Z,17.57
2018-06-09T20:57:30.860Z,23.03
2018-06-09T20:59:59.397Z,18.03
2018-06-09T21:02:27.726Z,18.40
2018-06-09T21:04:56.309Z,20.07
2018-06-09T21:07:24.895Z,21.30
2018-06-09T21:09:53.445Z,17.60
2018-06-09T21:12:21.997Z,25.13
2018-06-09T21:14:50.652Z,16.20
2018-06-09T21:17:19.234Z,23.60
2018-06-09T21:19:48.265Z,19.07
2018-06-09T21:22:16.820Z,19.23
2018-06-09T21:24:45.784Z,17.47
2018-06-09T21:27:19.716Z,15.93
2018-06-09T21:29:55.994Z,20.30
2018-06-09T21:32:29.867Z,15.83
2018-06-09T21:35:14.998Z,21.13
2018-06-09T21:37:47.177Z,20.23
2018-06-09T21:40:36.245Z,18.43
2018-06-09T21:45:14.658Z,16.20
2018-06-09T21:47:43.230Z,17.47
2018-06-09T21:50:11.812Z,22.07
2018-06-09T21:52:40.389Z,20.27
2018-06-09T21:55:08.859Z,20.70
2018-06-09T21:57:38.165Z,21.17
2018-06-09T22:00:07.104Z,17.50
2018-06-09T22:02:36.155Z,14.60
2018-06-09T22:05:04.780Z,17.60
2018-06-09T22:07:33.333Z,18.40
2018-06-09T22:10:02.358Z,21.67
2018-06-09T22:12:30.983Z,19.50
2018-06-09T22:14:59.653Z,25.43
2018-06-09T22:17:28.414Z,18.73
2018-06-09T22:19:57.145Z,17.03
2018-06-09T22:22:26.091Z,17.70
2018-06-09T22:24:54.872Z,18.87
2018-06-09T22:27:23.676Z,16.27
2018-06-09T22:29:52.365Z,21.00
2018-06-09T22:32:21.086Z,21.43
2018-06-09T22:34:49.760Z,20.87
2018-06-09T22:37:19.520Z,19.67
2018-06-09T22:39:51.450Z,17.73
2018-06-09T22:42:20.042Z,17.80
2018-06-09T22:44:49.467Z,19.13
2018-06-09T22:47:18.014Z,21.57
2018-06-09T22:49:47.039Z,18.80
2018-06-09T22:52:15.557Z,19.70
2018-06-09T22:54:44.182Z,23.97
2018-06-09T22:57:13.406Z,18.37
2018-06-09T22:59:41.982Z,18.70
2018-06-09T23:02:10.512Z,19.83
2018-06-09T23:04:39.740Z,20.07
2018-06-09T23:07:08.206Z,24.67
2018-06-09T23:09:36.749Z,20.50
2018-06-09T23:12:05.244Z,21.20
2018-06-09T23:14:56.234Z,21.03
2018-06-09T23:17:25.029Z,22.23
2018-06-09T23:19:53.586Z,23.43
2018-06-09T23:22:21.837Z,20.87
2018-06-09T23:24:50.295Z,21.97
2018-06-09T23:27:18.809Z,25.67
2018-06-09T23:29:47.489Z,24.03
2018-06-09T23:32:16.074Z,23.83
2018-06-09T23:34:44.590Z,18.70
2018-06-09T23:37:13.207Z,24.40
2018-06-09T23:39:41.848Z,22.27
2018-06-09T23:42:10.413Z,22.00
2018-06-09T23:44:39.916Z,22.07
2018-06-09T23:47:08.455Z,22.43
2018-06-09T23:49:37.997Z,19.13
2018-06-09T23:52:06.488Z,20.80
2018-06-09T23:54:34.968Z,20.73
2018-06-09T23:57:03.493Z,22.73
2018-06-09T23:59:31.955Z,20.83
